sensor_id;sensor_type;location;lat;lon;timestamp;temperature;humidity
12276;DHT22;6200;48.144;11.424;2022-08-24T00:02:19;15.50;99.90
12276;DHT22;6200;48.144;11.424;2022-08-24T00:04:46;15.30;99.90
12276;DHT22;6200;48.144;11.424;2022-08-24T00:07:12;15.30;99.90
12276;DHT22;6200;48.144;11.424;2022-08-24T00:09:38;15.10;99.90
12276;DHT22;6200;48.144;11.424;2022-08-24T00:12:03;15.00;99.90
12276;DHT22;6200;48.144;11.424;2022-08-24T00:14:29;17.10;99.90
12276;DHT22;6200;48.144;11.424;2022-08-24T00:16:55;16.80;99.90
12276;DHT22;6200;48.144;11.424;2022-08-24T00:19:22;15.20;99.90
12276;DHT22;6200;48.144;11.424;2022-08-24T00:21:48;15.00;99.90
12276;DHT22;6200;48.144;11.424;2022-08-24T00:24:14;15.10;99.90
12276;DHT22;6200;48.144;11.424;2022-08-24T00:26:39;15.10;99.90
12276;DHT22;6200;48.144;11.424;2022-08-24T00:29:05;14.90;99.90
12276;DHT22;6200;48.144;11.424;2022-08-24T00:31:30;14.80;99.90
12276;DHT22;6200;48.144;11.424;2022-08-24T00:33:56;14.90;99.90
12276;DHT22;6200;48.144;11.424;2022-08-24T00:36:23;14.90;99.90
12276;DHT22;6200;48.144;11.424;2022-08-24T00:38:49;15.00;99.90
12276;DHT22;6200;48.144;11.424;2022-08-24T00:41:15;15.00;99.90
12276;DHT22;6200;48.144;11.424;2022-08-24T00:43:51;15.00;99.90
12276;DHT22;6200;48.144;11.424;2022-08-24T00:46:45;14.90;99.90
12276;DHT22;6200;48.144;11.424;2022-08-24T00:49:34;14.80;99.90
12276;DHT22;6200;48.144;11.424;2022-08-24T00:52:06;14.70;99.90
12276;DHT22;6200;48.144;11.424;2022-08-24T00:54:38;14.70;99.90
12276;DHT22;6200;48.144;11.424;2022-08-24T00:57:06;14.50;99.90
12276;DHT22;6200;48.144;11.424;2022-08-24T00:59:42;14.40;99.90
12276;DHT22;6200;48.144;11.424;2022-08-24T01:02:13;14.30;99.90
12276;DHT22;6200;48.144;11.424;2022-08-24T01:04:54;14.30;99.90
12276;DHT22;6200;48.144;11.424;2022-08-24T01:07:28;14.50;99.90
12276;DHT22;6200;48.144;11.424;2022-08-24T01:09:59;14.50;99.90
12276;DHT22;6200;48.144;11.424;2022-08-24T01:12:27;14.40;99.90
12276;DHT22;6200;48.144;11.424;2022-08-24T01:14:55;14.30;99.90
12276;DHT22;6200;48.144;11.424;2022-08-24T01:17:23;14.20;99.90
12276;DHT22;6200;48.144;11.424;2022-08-24T01:20:08;14.20;99.90
12276;DHT22;6200;48.144;11.424;2022-08-24T01:22:50;14.30;99.90
12276;DHT22;6200;48.144;11.424;2022-08-24T01:25:19;14.20;99.90
12276;DHT22;6200;48.144;11.424;2022-08-24T01:27:46;14.00;99.90
12276;DHT22;6200;48.144;11.424;2022-08-24T01:30:13;14.10;99.90
12276;DHT22;6200;48.144;11.424;2022-08-24T01:32:40;14.20;99.90
12276;DHT22;6200;48.144;11.424;2022-08-24T01:35:06;14.00;99.90
12276;DHT22;6200;48.144;11.424;2022-08-24T01:37:32;13.90;99.90
12276;DHT22;6200;48.144;11.424;2022-08-24T01:40:00;14.00;99.90
12276;DHT22;6200;48.144;11.424;2022-08-24T01:42:28;14.10;99.90
12276;DHT22;6200;48.144;11.424;2022-08-24T01:44:54;14.10;99.90
12276;DHT22;6200;48.144;11.424;2022-08-24T01:47:19;14.20;99.90
12276;DHT22;6200;48.144;11.424;2022-08-24T01:49:46;14.20;99.90
12276;DHT22;6200;48.144;11.424;2022-08-24T01:52:16;14.20;99.90
12276;DHT22;6200;48.144;11.424;2022-08-24T01:54:42;14.10;99.90
12276;DHT22;6200;48.144;11.424;2022-08-24T01:57:08;14.10;99.90
12276;DHT22;6200;48.144;11.424;2022-08-24T01:59:33;14.10;99.90
12276;DHT22;6200;48.144;11.424;2022-08-24T02:02:07;14.10;99.90
12276;DHT22;6200;48.144;11.424;2022-08-24T02:04:34;14.10;99.90
12276;DHT22;6200;48.144;11.424;2022-08-24T02:07:00;14.10;99.90
12276;DHT22;6200;48.144;11.424;2022-08-24T02:09:25;14.10;99.90
12276;DHT22;6200;48.144;11.424;2022-08-24T02:11:52;14.10;99.90
12276;DHT22;6200;48.144;11.424;2022-08-24T02:14:18;14.10;99.90
12276;DHT22;6200;48.144;11.424;2022-08-24T02:16:44;14.10;99.90
12276;DHT22;6200;48.144;11.424;2022-08-24T02:19:10;14.10;99.90
12276;DHT22;6200;48.144;11.424;2022-08-24T02:21:35;14.10;99.90
12276;DHT22;6200;48.144;11.424;2022-08-24T02:24:01;14.10;99.90
12276;DHT22;6200;48.144;11.424;2022-08-24T02:26:27;14.10;99.90
12276;DHT22;6200;48.144;11.424;2022-08-24T02:28:52;14.10;99.90
12276;DHT22;6200;48.144;11.424;2022-08-24T02:31:18;14.00;99.90
12276;DHT22;6200;48.144;11.424;2022-08-24T02:33:44;14.00;99.90
12276;DHT22;6200;48.144;11.424;2022-08-24T02:36:11;14.00;99.90
12276;DHT22;6200;48.144;11.424;2022-08-24T02:38:37;13.90;99.90
12276;DHT22;6200;48.144;11.424;2022-08-24T02:41:03;13.70;99.90
12276;DHT22;6200;48.144;11.424;2022-08-24T02:43:28;13.50;99.90
12276;DHT22;6200;48.144;11.424;2022-08-24T02:45:54;13.40;99.90
12276;DHT22;6200;48.144;11.424;2022-08-24T02:48:19;13.50;99.90
12276;DHT22;6200;48.144;11.424;2022-08-24T02:50:47;13.50;99.90
12276;DHT22;6200;48.144;11.424;2022-08-24T02:53:15;13.50;99.90
12276;DHT22;6200;48.144;11.424;2022-08-24T02:55:42;13.40;99.90
12276;DHT22;6200;48.144;11.424;2022-08-24T02:58:09;13.50;99.90
12276;DHT22;6200;48.144;11.424;2022-08-24T03:00:36;13.50;99.90
12276;DHT22;6200;48.144;11.424;2022-08-24T03:03:03;13.50;99.90
12276;DHT22;6200;48.144;11.424;2022-08-24T03:05:29;13.40;99.90
12276;DHT22;6200;48.144;11.424;2022-08-24T03:07:55;13.50;99.90
12276;DHT22;6200;48.144;11.424;2022-08-24T03:10:21;13.40;99.90
12276;DHT22;6200;48.144;11.424;2022-08-24T03:12:48;13.40;99.90
12276;DHT22;6200;48.144;11.424;2022-08-24T03:15:15;13.50;99.90
12276;DHT22;6200;48.144;11.424;2022-08-24T03:17:41;13.50;99.90
12276;DHT22;6200;48.144;11.424;2022-08-24T03:20:13;13.40;99.90
12276;DHT22;6200;48.144;11.424;2022-08-24T03:22:39;13.30;99.90
12276;DHT22;6200;48.144;11.424;2022-08-24T03:25:06;13.40;99.90
12276;DHT22;6200;48.144;11.424;2022-08-24T03:27:33;13.30;99.90
12276;DHT22;6200;48.144;11.424;2022-08-24T03:29:58;13.30;99.90
12276;DHT22;6200;48.144;11.424;2022-08-24T03:32:25;13.30;99.90
12276;DHT22;6200;48.144;11.424;2022-08-24T03:34:51;13.30;99.90
12276;DHT22;6200;48.144;11.424;2022-08-24T03:37:16;13.20;99.90
12276;DHT22;6200;48.144;11.424;2022-08-24T03:39:42;13.10;99.90
12276;DHT22;6200;48.144;11.424;2022-08-24T03:42:07;13.10;99.90
12276;DHT22;6200;48.144;11.424;2022-08-24T03:44:33;13.00;99.90
12276;DHT22;6200;48.144;11.424;2022-08-24T03:47:00;13.00;99.90
12276;DHT22;6200;48.144;11.424;2022-08-24T03:49:25;12.90;99.90
12276;DHT22;6200;48.144;11.424;2022-08-24T03:51:51;13.00;99.90
12276;DHT22;6200;48.144;11.424;2022-08-24T03:54:17;13.10;99.90
12276;DHT22;6200;48.144;11.424;2022-08-24T03:56:43;13.10;99.90
12276;DHT22;6200;48.144;11.424;2022-08-24T03:59:10;13.20;99.90
12276;DHT22;6200;48.144;11.424;2022-08-24T04:01:36;13.20;99.90
12276;DHT22;6200;48.144;11.424;2022-08-24T04:04:03;13.20;99.90
12276;DHT22;6200;48.144;11.424;2022-08-24T04:06:28;13.20;99.90
12276;DHT22;6200;48.144;11.424;2022-08-24T04:08:55;13.20;99.90
12276;DHT22;6200;48.144;11.424;2022-08-24T04:11:23;13.20;99.90
12276;DHT22;6200;48.144;11.424;2022-08-24T04:13:52;13.10;99.90
12276;DHT22;6200;48.144;11.424;2022-08-24T04:16:19;13.20;99.90
12276;DHT22;6200;48.144;11.424;2022-08-24T04:18:45;13.20;99.90
12276;DHT22;6200;48.144;11.424;2022-08-24T04:21:19;13.20;99.90
12276;DHT22;6200;48.144;11.424;2022-08-24T04:23:46;13.20;99.90
12276;DHT22;6200;48.144;11.424;2022-08-24T04:26:11;13.20;99.90
12276;DHT22;6200;48.144;11.424;2022-08-24T04:28:37;13.20;99.90
12276;DHT22;6200;48.144;11.424;2022-08-24T04:31:04;13.20;99.90
12276;DHT22;6200;48.144;11.424;2022-08-24T04:33:31;13.20;99.90
12276;DHT22;6200;48.144;11.424;2022-08-24T04:35:57;13.20;99.90
12276;DHT22;6200;48.144;11.424;2022-08-24T04:38:23;13.20;99.90
12276;DHT22;6200;48.144;11.424;2022-08-24T04:40:49;13.20;99.90
12276;DHT22;6200;48.144;11.424;2022-08-24T04:43:15;13.30;99.90
12276;DHT22;6200;48.144;11.424;2022-08-24T04:45:43;13.30;99.90
12276;DHT22;6200;48.144;11.424;2022-08-24T04:48:09;13.30;99.90
12276;DHT22;6200;48.144;11.424;2022-08-24T04:50:40;13.30;99.90
12276;DHT22;6200;48.144;11.424;2022-08-24T04:53:07;13.30;99.90
12276;DHT22;6200;48.144;11.424;2022-08-24T04:55:40;13.30;99.90
12276;DHT22;6200;48.144;11.424;2022-08-24T04:58:05;13.30;99.90
12276;DHT22;6200;48.144;11.424;2022-08-24T05:00:31;13.30;99.90
12276;DHT22;6200;48.144;11.424;2022-08-24T05:02:57;13.40;99.90
12276;DHT22;6200;48.144;11.424;2022-08-24T05:05:22;13.40;99.90
12276;DHT22;6200;48.144;11.424;2022-08-24T05:07:48;13.30;99.90
12276;DHT22;6200;48.144;11.424;2022-08-24T05:10:14;13.20;99.90
12276;DHT22;6200;48.144;11.424;2022-08-24T05:12:40;13.20;99.90
12276;DHT22;6200;48.144;11.424;2022-08-24T05:15:06;13.20;99.90
12276;DHT22;6200;48.144;11.424;2022-08-24T05:17:32;13.30;99.90
12276;DHT22;6200;48.144;11.424;2022-08-24T05:19:57;13.30;99.90
12276;DHT22;6200;48.144;11.424;2022-08-24T05:22:23;13.40;99.90
12276;DHT22;6200;48.144;11.424;2022-08-24T05:24:49;13.40;99.90
12276;DHT22;6200;48.144;11.424;2022-08-24T05:27:15;13.40;99.90
12276;DHT22;6200;48.144;11.424;2022-08-24T05:29:41;13.50;99.90
12276;DHT22;6200;48.144;11.424;2022-08-24T05:32:06;13.60;99.90
12276;DHT22;6200;48.144;11.424;2022-08-24T05:34:32;13.70;99.90
12276;DHT22;6200;48.144;11.424;2022-08-24T05:36:58;13.80;99.90
12276;DHT22;6200;48.144;11.424;2022-08-24T05:39:23;13.80;99.90
12276;DHT22;6200;48.144;11.424;2022-08-24T05:41:49;13.90;99.90
12276;DHT22;6200;48.144;11.424;2022-08-24T05:44:15;13.90;99.90
12276;DHT22;6200;48.144;11.424;2022-08-24T05:46:42;14.00;99.90
12276;DHT22;6200;48.144;11.424;2022-08-24T05:49:08;14.00;99.90
12276;DHT22;6200;48.144;11.424;2022-08-24T05:51:34;14.00;99.90
12276;DHT22;6200;48.144;11.424;2022-08-24T05:54:00;14.10;99.90
12276;DHT22;6200;48.144;11.424;2022-08-24T05:56:28;14.20;99.90
12276;DHT22;6200;48.144;11.424;2022-08-24T05:58:54;14.20;99.90
12276;DHT22;6200;48.144;11.424;2022-08-24T06:01:24;14.20;99.90
12276;DHT22;6200;48.144;11.424;2022-08-24T06:03:51;14.20;99.90
12276;DHT22;6200;48.144;11.424;2022-08-24T06:06:19;14.30;99.90
12276;DHT22;6200;48.144;11.424;2022-08-24T06:08:49;14.40;99.90
12276;DHT22;6200;48.144;11.424;2022-08-24T06:11:23;14.50;99.90
12276;DHT22;6200;48.144;11.424;2022-08-24T06:13:50;14.70;99.90
12276;DHT22;6200;48.144;11.424;2022-08-24T06:16:16;14.70;99.90
12276;DHT22;6200;48.144;11.424;2022-08-24T06:18:42;14.80;99.90
12276;DHT22;6200;48.144;11.424;2022-08-24T06:21:10;15.00;99.90
12276;DHT22;6200;48.144;11.424;2022-08-24T06:23:38;15.10;99.90
12276;DHT22;6200;48.144;11.424;2022-08-24T06:26:06;15.50;99.90
12276;DHT22;6200;48.144;11.424;2022-08-24T06:28:52;16.50;99.90
12276;DHT22;6200;48.144;11.424;2022-08-24T06:31:18;18.00;99.90
12276;DHT22;6200;48.144;11.424;2022-08-24T06:33:44;18.80;99.90
12276;DHT22;6200;48.144;11.424;2022-08-24T06:36:10;19.30;99.90
12276;DHT22;6200;48.144;11.424;2022-08-24T06:38:35;20.20;99.90
12276;DHT22;6200;48.144;11.424;2022-08-24T06:41:01;20.40;98.20
12276;DHT22;6200;48.144;11.424;2022-08-24T06:43:26;20.60;97.00
12276;DHT22;6200;48.144;11.424;2022-08-24T06:45:54;20.70;95.30
12276;DHT22;6200;48.144;11.424;2022-08-24T06:48:20;20.70;96.10
12276;DHT22;6200;48.144;11.424;2022-08-24T06:50:46;20.80;95.30
12276;DHT22;6200;48.144;11.424;2022-08-24T06:53:12;20.80;95.60
12276;DHT22;6200;48.144;11.424;2022-08-24T06:55:44;20.70;93.50
12276;DHT22;6200;48.144;11.424;2022-08-24T06:58:10;21.00;94.50
12276;DHT22;6200;48.144;11.424;2022-08-24T07:00:35;21.30;92.30
12276;DHT22;6200;48.144;11.424;2022-08-24T07:03:01;22.20;91.80
12276;DHT22;6200;48.144;11.424;2022-08-24T07:05:26;23.20;90.70
12276;DHT22;6200;48.144;11.424;2022-08-24T07:07:52;24.00;87.40
12276;DHT22;6200;48.144;11.424;2022-08-24T07:10:18;25.40;83.00
12276;DHT22;6200;48.144;11.424;2022-08-24T07:12:43;26.60;77.90
12276;DHT22;6200;48.144;11.424;2022-08-24T07:15:09;27.20;71.10
12276;DHT22;6200;48.144;11.424;2022-08-24T07:17:35;26.50;66.90
12276;DHT22;6200;48.144;11.424;2022-08-24T07:20:01;26.50;67.90
12276;DHT22;6200;48.144;11.424;2022-08-24T07:22:26;26.80;66.10
12276;DHT22;6200;48.144;11.424;2022-08-24T07:24:52;27.40;63.90
12276;DHT22;6200;48.144;11.424;2022-08-24T07:27:17;27.40;62.80
12276;DHT22;6200;48.144;11.424;2022-08-24T07:29:43;27.90;61.70
12276;DHT22;6200;48.144;11.424;2022-08-24T07:32:08;27.30;64.40
12276;DHT22;6200;48.144;11.424;2022-08-24T07:34:35;28.10;64.30
12276;DHT22;6200;48.144;11.424;2022-08-24T07:37:02;27.30;63.60
12276;DHT22;6200;48.144;11.424;2022-08-24T07:39:28;29.90;61.60
12276;DHT22;6200;48.144;11.424;2022-08-24T07:41:54;28.20;62.00
12276;DHT22;6200;48.144;11.424;2022-08-24T07:44:21;28.80;58.90
12276;DHT22;6200;48.144;11.424;2022-08-24T07:46:46;29.40;58.00
12276;DHT22;6200;48.144;11.424;2022-08-24T07:49:12;30.40;57.40
12276;DHT22;6200;48.144;11.424;2022-08-24T07:51:38;32.10;55.40
12276;DHT22;6200;48.144;11.424;2022-08-24T07:54:04;33.00;52.20
12276;DHT22;6200;48.144;11.424;2022-08-24T07:56:30;32.20;52.50
12276;DHT22;6200;48.144;11.424;2022-08-24T07:58:56;31.00;51.00
12276;DHT22;6200;48.144;11.424;2022-08-24T08:01:22;29.60;52.40
12276;DHT22;6200;48.144;11.424;2022-08-24T08:03:48;28.70;54.30
12276;DHT22;6200;48.144;11.424;2022-08-24T08:06:15;29.50;56.10
12276;DHT22;6200;48.144;11.424;2022-08-24T08:08:41;30.20;53.50
12276;DHT22;6200;48.144;11.424;2022-08-24T08:11:08;30.70;53.60
12276;DHT22;6200;48.144;11.424;2022-08-24T08:13:34;31.30;52.50
12276;DHT22;6200;48.144;11.424;2022-08-24T08:16:00;32.60;51.10
12276;DHT22;6200;48.144;11.424;2022-08-24T08:18:27;33.00;50.30
12276;DHT22;6200;48.144;11.424;2022-08-24T08:20:52;32.60;48.70
12276;DHT22;6200;48.144;11.424;2022-08-24T08:23:19;32.60;49.90
12276;DHT22;6200;48.144;11.424;2022-08-24T08:26:03;34.10;48.30
12276;DHT22;6200;48.144;11.424;2022-08-24T08:28:29;35.00;45.90
12276;DHT22;6200;48.144;11.424;2022-08-24T08:30:59;34.60;46.90
12276;DHT22;6200;48.144;11.424;2022-08-24T08:33:25;33.90;46.30
12276;DHT22;6200;48.144;11.424;2022-08-24T08:35:52;34.00;47.10
12276;DHT22;6200;48.144;11.424;2022-08-24T08:38:22;33.40;46.40
12276;DHT22;6200;48.144;11.424;2022-08-24T08:41:06;32.70;48.70
12276;DHT22;6200;48.144;11.424;2022-08-24T08:43:45;32.90;48.10
12276;DHT22;6200;48.144;11.424;2022-08-24T08:52:24;33.90;46.30
12276;DHT22;6200;48.144;11.424;2022-08-24T08:55:03;35.40;45.10
12276;DHT22;6200;48.144;11.424;2022-08-24T09:00:17;37.30;43.00
12276;DHT22;6200;48.144;11.424;2022-08-24T09:02:53;38.00;41.60
12276;DHT22;6200;48.144;11.424;2022-08-24T09:23:42;39.40;38.10
12276;DHT22;6200;48.144;11.424;2022-08-24T09:26:31;38.80;38.40
12276;DHT22;6200;48.144;11.424;2022-08-24T09:29:02;38.30;39.80
12276;DHT22;6200;48.144;11.424;2022-08-24T09:34:28;35.90;41.80
12276;DHT22;6200;48.144;11.424;2022-08-24T09:40:27;37.20;42.90
12276;DHT22;6200;48.144;11.424;2022-08-24T09:43:27;37.20;40.70
12276;DHT22;6200;48.144;11.424;2022-08-24T09:54:49;40.60;38.50
12276;DHT22;6200;48.144;11.424;2022-08-24T09:57:37;40.90;38.10
12276;DHT22;6200;48.144;11.424;2022-08-24T10:00:23;40.80;37.40
12276;DHT22;6200;48.144;11.424;2022-08-24T10:03:10;40.70;37.10
12276;DHT22;6200;48.144;11.424;2022-08-24T10:05:49;40.60;38.30
12276;DHT22;6200;48.144;11.424;2022-08-24T10:08:21;41.10;37.20
12276;DHT22;6200;48.144;11.424;2022-08-24T10:11:25;40.80;37.00
12276;DHT22;6200;48.144;11.424;2022-08-24T10:19:52;41.10;37.90
12276;DHT22;6200;48.144;11.424;2022-08-24T10:28:22;40.00;38.20
12276;DHT22;6200;48.144;11.424;2022-08-24T10:31:08;40.90;38.00
12276;DHT22;6200;48.144;11.424;2022-08-24T10:37:24;38.00;40.40
12276;DHT22;6200;48.144;11.424;2022-08-24T10:39:46;38.40;41.30
12276;DHT22;6200;48.144;11.424;2022-08-24T10:45:53;38.70;41.20
12276;DHT22;6200;48.144;11.424;2022-08-24T10:53:29;39.10;39.30
12276;DHT22;6200;48.144;11.424;2022-08-24T10:56:03;38.50;39.80
12276;DHT22;6200;48.144;11.424;2022-08-24T10:58:35;38.90;38.70
12276;DHT22;6200;48.144;11.424;2022-08-24T11:04:25;38.70;38.60
12276;DHT22;6200;48.144;11.424;2022-08-24T11:09:59;39.00;39.60
12276;DHT22;6200;48.144;11.424;2022-08-24T11:12:40;39.70;39.00
12276;DHT22;6200;48.144;11.424;2022-08-24T11:20:40;40.00;39.00
12276;DHT22;6200;48.144;11.424;2022-08-24T11:23:34;40.30;38.20
12276;DHT22;6200;48.144;11.424;2022-08-24T11:26:05;40.40;38.10
12276;DHT22;6200;48.144;11.424;2022-08-24T11:30:57;40.00;38.20
12276;DHT22;6200;48.144;11.424;2022-08-24T11:33:30;39.40;39.60
12276;DHT22;6200;48.144;11.424;2022-08-24T11:35:58;39.40;40.20
12276;DHT22;6200;48.144;11.424;2022-08-24T11:38:31;38.10;40.40
12276;DHT22;6200;48.144;11.424;2022-08-24T11:41:15;37.40;41.30
12276;DHT22;6200;48.144;11.424;2022-08-24T11:46:36;37.90;41.90
12276;DHT22;6200;48.144;11.424;2022-08-24T11:49:25;37.10;41.50
12276;DHT22;6200;48.144;11.424;2022-08-24T12:00:55;38.60;40.00
12276;DHT22;6200;48.144;11.424;2022-08-24T12:06:17;40.80;38.80
12276;DHT22;6200;48.144;11.424;2022-08-24T12:08:49;39.90;38.50
12276;DHT22;6200;48.144;11.424;2022-08-24T12:11:38;40.70;38.10
12276;DHT22;6200;48.144;11.424;2022-08-24T12:14:35;40.30;38.40
12276;DHT22;6200;48.144;11.424;2022-08-24T12:20:21;41.10;37.60
12276;DHT22;6200;48.144;11.424;2022-08-24T12:22:50;40.80;37.50
12276;DHT22;6200;48.144;11.424;2022-08-24T12:25:16;39.50;38.00
12276;DHT22;6200;48.144;11.424;2022-08-24T12:28:00;40.60;38.70
12276;DHT22;6200;48.144;11.424;2022-08-24T12:30:26;40.00;38.50
12276;DHT22;6200;48.144;11.424;2022-08-24T12:32:57;40.40;38.00
12276;DHT22;6200;48.144;11.424;2022-08-24T12:38:21;40.00;39.30
12276;DHT22;6200;48.144;11.424;2022-08-24T12:40:55;39.60;38.90
12276;DHT22;6200;48.144;11.424;2022-08-24T12:43:29;39.30;39.80
12276;DHT22;6200;48.144;11.424;2022-08-24T12:45:57;38.10;41.80
12276;DHT22;6200;48.144;11.424;2022-08-24T12:48:38;37.90;42.10
12276;DHT22;6200;48.144;11.424;2022-08-24T12:59:37;38.60;41.10
12276;DHT22;6200;48.144;11.424;2022-08-24T13:02:22;38.40;41.00
12276;DHT22;6200;48.144;11.424;2022-08-24T13:17:58;37.40;43.60
12276;DHT22;6200;48.144;11.424;2022-08-24T13:28:42;38.10;42.40
12276;DHT22;6200;48.144;11.424;2022-08-24T13:33:48;38.00;42.00
12276;DHT22;6200;48.144;11.424;2022-08-24T13:36:35;37.10;43.20
12276;DHT22;6200;48.144;11.424;2022-08-24T13:41:46;35.90;45.80
12276;DHT22;6200;48.144;11.424;2022-08-24T13:47:21;35.00;46.10
12276;DHT22;6200;48.144;11.424;2022-08-24T13:50:10;34.70;47.20
12276;DHT22;6200;48.144;11.424;2022-08-24T13:52:54;34.90;47.00
12276;DHT22;6200;48.144;11.424;2022-08-24T14:09:13;34.10;47.50
12276;DHT22;6200;48.144;11.424;2022-08-24T14:11:58;33.80;49.00
12276;DHT22;6200;48.144;11.424;2022-08-24T14:17:20;32.40;49.30
12276;DHT22;6200;48.144;11.424;2022-08-24T14:20:26;32.30;49.80
12276;DHT22;6200;48.144;11.424;2022-08-24T14:25:44;31.50;52.80
12276;DHT22;6200;48.144;11.424;2022-08-24T14:28:23;31.40;53.00
12276;DHT22;6200;48.144;11.424;2022-08-24T14:31:14;31.30;52.80
12276;DHT22;6200;48.144;11.424;2022-08-24T14:33:50;30.90;53.80
12276;DHT22;6200;48.144;11.424;2022-08-24T14:36:20;30.80;53.70
12276;DHT22;6200;48.144;11.424;2022-08-24T14:39:00;30.80;53.90
12276;DHT22;6200;48.144;11.424;2022-08-24T14:41:54;30.50;54.20
12276;DHT22;6200;48.144;11.424;2022-08-24T14:53:08;29.90;56.00
12276;DHT22;6200;48.144;11.424;2022-08-24T14:55:54;28.60;54.80
12276;DHT22;6200;48.144;11.424;2022-08-24T15:06:55;30.00;56.90
12276;DHT22;6200;48.144;11.424;2022-08-24T15:09:41;29.70;57.50
12276;DHT22;6200;48.144;11.424;2022-08-24T15:15:29;29.40;58.50
12276;DHT22;6200;48.144;11.424;2022-08-24T15:18:03;29.30;58.70
12276;DHT22;6200;48.144;11.424;2022-08-24T15:23:21;28.90;59.40
12276;DHT22;6200;48.144;11.424;2022-08-24T15:26:02;28.70;59.80
12276;DHT22;6200;48.144;11.424;2022-08-24T15:28:32;28.60;59.70
12276;DHT22;6200;48.144;11.424;2022-08-24T15:33:29;28.30;60.30
12276;DHT22;6200;48.144;11.424;2022-08-24T15:36:15;28.30;64.00
12276;DHT22;6200;48.144;11.424;2022-08-24T15:38:42;28.30;62.80
12276;DHT22;6200;48.144;11.424;2022-08-24T15:41:21;28.30;62.70
12276;DHT22;6200;48.144;11.424;2022-08-24T15:43:59;28.20;62.80
12276;DHT22;6200;48.144;11.424;2022-08-24T15:46:39;28.20;62.90
12276;DHT22;6200;48.144;11.424;2022-08-24T15:49:21;28.10;64.00
12276;DHT22;6200;48.144;11.424;2022-08-24T15:51:56;27.90;62.90
12276;DHT22;6200;48.144;11.424;2022-08-24T15:56:52;27.50;63.10
12276;DHT22;6200;48.144;11.424;2022-08-24T16:10:31;27.00;66.20
12276;DHT22;6200;48.144;11.424;2022-08-24T16:16:01;26.80;68.50
12276;DHT22;6200;48.144;11.424;2022-08-24T16:24:11;26.70;66.70
12276;DHT22;6200;48.144;11.424;2022-08-24T16:32:28;26.50;67.00
12276;DHT22;6200;48.144;11.424;2022-08-24T16:37:25;26.20;68.90
12276;DHT22;6200;48.144;11.424;2022-08-24T16:39:51;26.20;68.50
12276;DHT22;6200;48.144;11.424;2022-08-24T16:42:28;26.20;68.00
12276;DHT22;6200;48.144;11.424;2022-08-24T16:44:55;26.20;69.50
12276;DHT22;6200;48.144;11.424;2022-08-24T16:47:21;26.20;68.60
12276;DHT22;6200;48.144;11.424;2022-08-24T16:49:47;26.00;68.50
12276;DHT22;6200;48.144;11.424;2022-08-24T16:52:14;26.00;68.00
12276;DHT22;6200;48.144;11.424;2022-08-24T16:54:40;26.00;69.30
12276;DHT22;6200;48.144;11.424;2022-08-24T16:57:19;26.00;69.90
12276;DHT22;6200;48.144;11.424;2022-08-24T16:59:46;25.90;69.60
12276;DHT22;6200;48.144;11.424;2022-08-24T17:02:14;25.80;69.70
12276;DHT22;6200;48.144;11.424;2022-08-24T17:04:40;25.90;69.90
12276;DHT22;6200;48.144;11.424;2022-08-24T17:07:08;25.80;70.10
12276;DHT22;6200;48.144;11.424;2022-08-24T17:09:37;25.70;70.70
12276;DHT22;6200;48.144;11.424;2022-08-24T17:12:03;25.60;70.90
12276;DHT22;6200;48.144;11.424;2022-08-24T17:14:29;25.60;72.10
12276;DHT22;6200;48.144;11.424;2022-08-24T17:16:56;25.50;71.90
12276;DHT22;6200;48.144;11.424;2022-08-24T17:19:22;25.50;72.00
12276;DHT22;6200;48.144;11.424;2022-08-24T17:21:48;24.80;71.60
12276;DHT22;6200;48.144;11.424;2022-08-24T17:24:14;25.30;73.80
12276;DHT22;6200;48.144;11.424;2022-08-24T17:26:42;25.30;73.20
12276;DHT22;6200;48.144;11.424;2022-08-24T17:29:08;25.20;74.20
12276;DHT22;6200;48.144;11.424;2022-08-24T17:31:35;25.10;75.30
12276;DHT22;6200;48.144;11.424;2022-08-24T17:34:02;25.00;74.60
12276;DHT22;6200;48.144;11.424;2022-08-24T17:36:28;25.00;76.10
12276;DHT22;6200;48.144;11.424;2022-08-24T17:38:54;24.90;75.40
12276;DHT22;6200;48.144;11.424;2022-08-24T17:41:23;24.90;75.40
12276;DHT22;6200;48.144;11.424;2022-08-24T17:43:48;24.80;76.20
12276;DHT22;6200;48.144;11.424;2022-08-24T17:46:14;24.70;76.60
12276;DHT22;6200;48.144;11.424;2022-08-24T17:48:42;24.60;78.20
12276;DHT22;6200;48.144;11.424;2022-08-24T17:51:09;24.60;77.60
12276;DHT22;6200;48.144;11.424;2022-08-24T17:53:35;24.40;77.70
12276;DHT22;6200;48.144;11.424;2022-08-24T17:56:02;24.40;77.10
12276;DHT22;6200;48.144;11.424;2022-08-24T17:58:28;24.40;77.30
12276;DHT22;6200;48.144;11.424;2022-08-24T18:00:53;24.40;77.90
12276;DHT22;6200;48.144;11.424;2022-08-24T18:03:19;24.20;78.50
12276;DHT22;6200;48.144;11.424;2022-08-24T18:05:45;24.10;79.50
12276;DHT22;6200;48.144;11.424;2022-08-24T18:08:11;24.00;79.20
12276;DHT22;6200;48.144;11.424;2022-08-24T18:10:37;23.90;80.60
12276;DHT22;6200;48.144;11.424;2022-08-24T18:13:02;23.80;80.20
12276;DHT22;6200;48.144;11.424;2022-08-24T18:15:31;23.80;80.70
12276;DHT22;6200;48.144;11.424;2022-08-24T18:17:58;23.70;81.10
12276;DHT22;6200;48.144;11.424;2022-08-24T18:20:28;23.50;83.00
12276;DHT22;6200;48.144;11.424;2022-08-24T18:22:55;23.50;83.30
12276;DHT22;6200;48.144;11.424;2022-08-24T18:25:22;23.40;83.50
12276;DHT22;6200;48.144;11.424;2022-08-24T18:27:51;23.40;83.60
12276;DHT22;6200;48.144;11.424;2022-08-24T18:30:24;23.30;84.40
12276;DHT22;6200;48.144;11.424;2022-08-24T18:32:50;23.20;85.80
12276;DHT22;6200;48.144;11.424;2022-08-24T18:35:15;23.00;85.80
12276;DHT22;6200;48.144;11.424;2022-08-24T18:37:41;23.00;85.90
12276;DHT22;6200;48.144;11.424;2022-08-24T18:40:07;22.90;87.10
12276;DHT22;6200;48.144;11.424;2022-08-24T18:42:33;22.80;86.90
12276;DHT22;6200;48.144;11.424;2022-08-24T18:44:59;22.00;87.00
12276;DHT22;6200;48.144;11.424;2022-08-24T18:47:28;22.60;88.70
12276;DHT22;6200;48.144;11.424;2022-08-24T18:49:53;22.60;88.40
12276;DHT22;6200;48.144;11.424;2022-08-24T18:52:19;22.50;88.90
12276;DHT22;6200;48.144;11.424;2022-08-24T18:54:46;22.40;89.50
12276;DHT22;6200;48.144;11.424;2022-08-24T18:57:13;22.40;89.30
12276;DHT22;6200;48.144;11.424;2022-08-24T18:59:40;22.30;89.90
12276;DHT22;6200;48.144;11.424;2022-08-24T19:02:15;22.40;90.40
12276;DHT22;6200;48.144;11.424;2022-08-24T19:07:29;22.20;90.90
12276;DHT22;6200;48.144;11.424;2022-08-24T19:09:56;22.10;90.90
12276;DHT22;6200;48.144;11.424;2022-08-24T19:12:22;22.00;91.30
12276;DHT22;6200;48.144;11.424;2022-08-24T19:14:51;21.90;91.50
12276;DHT22;6200;48.144;11.424;2022-08-24T19:17:18;21.80;92.20
12276;DHT22;6200;48.144;11.424;2022-08-24T19:19:43;21.70;91.90
12276;DHT22;6200;48.144;11.424;2022-08-24T19:22:10;21.70;92.50
12276;DHT22;6200;48.144;11.424;2022-08-24T19:24:37;21.70;92.70